sensor_id;sensor_type;location;lat;lon;timestamp;temperature;humidity
1011;DHT22;494;48.744;10.106;2023-04-24T00:01:47;12.50;52.60
1011;DHT22;494;48.744;10.106;2023-04-24T00:04:18;12.50;52.50
1011;DHT22;494;48.744;10.106;2023-04-24T00:06:47;12.50;52.50
1011;DHT22;494;48.744;10.106;2023-04-24T00:09:18;12.50;52.30
1011;DHT22;494;48.744;10.106;2023-04-24T00:11:47;12.50;52.10
1011;DHT22;494;48.744;10.106;2023-04-24T00:14:17;12.40;52.10
1011;DHT22;494;48.744;10.106;2023-04-24T00:16:46;12.50;52.20
1011;DHT22;494;48.744;10.106;2023-04-24T00:19:15;12.40;51.90
1011;DHT22;494;48.744;10.106;2023-04-24T00:21:44;12.40;51.90
1011;DHT22;494;48.744;10.106;2023-04-24T00:24:13;12.40;52.10
1011;DHT22;494;48.744;10.106;2023-04-24T00:26:42;12.40;52.00
1011;DHT22;494;48.744;10.106;2023-04-24T00:29:11;12.40;51.90
1011;DHT22;494;48.744;10.106;2023-04-24T00:31:49;12.40;51.80
1011;DHT22;494;48.744;10.106;2023-04-24T00:34:18;12.50;51.80
1011;DHT22;494;48.744;10.106;2023-04-24T00:36:48;12.50;51.70
1011;DHT22;494;48.744;10.106;2023-04-24T00:39:19;12.50;51.50
1011;DHT22;494;48.744;10.106;2023-04-24T00:41:47;12.50;51.70
1011;DHT22;494;48.744;10.106;2023-04-24T00:44:19;12.40;51.40
1011;DHT22;494;48.744;10.106;2023-04-24T00:46:50;12.40;51.40
1011;DHT22;494;48.744;10.106;2023-04-24T00:49:21;12.40;51.60
1011;DHT22;494;48.744;10.106;2023-04-24T00:51:50;12.30;52.20
1011;DHT22;494;48.744;10.106;2023-04-24T00:54:21;12.30;51.70
1011;DHT22;494;48.744;10.106;2023-04-24T00:56:50;12.20;51.70
1011;DHT22;494;48.744;10.106;2023-04-24T00:59:19;12.20;51.80
1011;DHT22;494;48.744;10.106;2023-04-24T01:01:49;12.10;51.40
1011;DHT22;494;48.744;10.106;2023-04-24T01:04:19;12.00;51.40
1011;DHT22;494;48.744;10.106;2023-04-24T01:06:50;11.90;51.90
1011;DHT22;494;48.744;10.106;2023-04-24T01:09:20;11.80;52.60
1011;DHT22;494;48.744;10.106;2023-04-24T01:11:51;11.80;52.80
1011;DHT22;494;48.744;10.106;2023-04-24T01:14:20;11.80;52.90
1011;DHT22;494;48.744;10.106;2023-04-24T01:16:51;11.90;53.00
1011;DHT22;494;48.744;10.106;2023-04-24T01:19:19;11.80;52.60
1011;DHT22;494;48.744;10.106;2023-04-24T01:21:51;11.80;52.40
1011;DHT22;494;48.744;10.106;2023-04-24T01:24:24;11.80;52.80
1011;DHT22;494;48.744;10.106;2023-04-24T01:26:55;11.70;52.80
1011;DHT22;494;48.744;10.106;2023-04-24T01:29:24;11.80;52.70
1011;DHT22;494;48.744;10.106;2023-04-24T01:31:53;11.80;52.50
1011;DHT22;494;48.744;10.106;2023-04-24T01:34:25;11.80;52.30
1011;DHT22;494;48.744;10.106;2023-04-24T01:36:54;11.70;52.40
1011;DHT22;494;48.744;10.106;2023-04-24T01:39:25;11.70;52.60
1011;DHT22;494;48.744;10.106;2023-04-24T01:41:56;11.80;52.70
1011;DHT22;494;48.744;10.106;2023-04-24T01:44:24;11.80;52.50
1011;DHT22;494;48.744;10.106;2023-04-24T01:46:55;11.90;52.50
1011;DHT22;494;48.744;10.106;2023-04-24T01:49:24;11.90;52.10
1011;DHT22;494;48.744;10.106;2023-04-24T01:51:54;11.90;51.90
1011;DHT22;494;48.744;10.106;2023-04-24T01:54:24;11.80;51.50
1011;DHT22;494;48.744;10.106;2023-04-24T01:56:53;11.70;51.70
1011;DHT22;494;48.744;10.106;2023-04-24T01:59:23;11.60;52.00
1011;DHT22;494;48.744;10.106;2023-04-24T02:01:54;11.40;52.70
1011;DHT22;494;48.744;10.106;2023-04-24T02:04:24;11.30;53.80
1011;DHT22;494;48.744;10.106;2023-04-24T02:06:56;11.20;53.80
1011;DHT22;494;48.744;10.106;2023-04-24T02:09:26;11.30;54.00
1011;DHT22;494;48.744;10.106;2023-04-24T02:11:57;11.40;53.80
1011;DHT22;494;48.744;10.106;2023-04-24T02:14:27;11.40;53.50
1011;DHT22;494;48.744;10.106;2023-04-24T02:16:56;11.50;53.40
1011;DHT22;494;48.744;10.106;2023-04-24T02:19:25;11.50;53.20
1011;DHT22;494;48.744;10.106;2023-04-24T02:21:53;11.50;52.80
1011;DHT22;494;48.744;10.106;2023-04-24T02:24:22;11.50;52.60
1011;DHT22;494;48.744;10.106;2023-04-24T02:26:52;11.60;52.40
1011;DHT22;494;48.744;10.106;2023-04-24T02:29:21;11.60;52.20
1011;DHT22;494;48.744;10.106;2023-04-24T02:31:50;11.60;52.00
1011;DHT22;494;48.744;10.106;2023-04-24T02:34:19;11.60;51.90
1011;DHT22;494;48.744;10.106;2023-04-24T02:36:48;11.70;51.80
1011;DHT22;494;48.744;10.106;2023-04-24T02:39:17;11.70;51.70
1011;DHT22;494;48.744;10.106;2023-04-24T02:41:46;11.70;51.60
1011;DHT22;494;48.744;10.106;2023-04-24T02:44:16;11.70;51.30
1011;DHT22;494;48.744;10.106;2023-04-24T02:46:45;11.70;51.30
1011;DHT22;494;48.744;10.106;2023-04-24T02:49:15;11.70;51.10
1011;DHT22;494;48.744;10.106;2023-04-24T02:51:44;11.70;51.10
1011;DHT22;494;48.744;10.106;2023-04-24T02:54:12;11.60;51.00
1011;DHT22;494;48.744;10.106;2023-04-24T02:56:41;11.50;50.50
1011;DHT22;494;48.744;10.106;2023-04-24T02:59:10;11.50;50.90
1011;DHT22;494;48.744;10.106;2023-04-24T03:01:40;11.40;50.90
1011;DHT22;494;48.744;10.106;2023-04-24T03:04:08;11.40;51.00
1011;DHT22;494;48.744;10.106;2023-04-24T03:06:39;11.40;51.00
1011;DHT22;494;48.744;10.106;2023-04-24T03:09:07;11.40;50.90
1011;DHT22;494;48.744;10.106;2023-04-24T03:11:37;11.40;51.00
1011;DHT22;494;48.744;10.106;2023-04-24T03:14:06;11.40;51.00
1011;DHT22;494;48.744;10.106;2023-04-24T03:16:35;11.40;50.70
1011;DHT22;494;48.744;10.106;2023-04-24T03:19:05;11.40;50.80
1011;DHT22;494;48.744;10.106;2023-04-24T03:21:35;11.40;50.70
1011;DHT22;494;48.744;10.106;2023-04-24T03:24:07;11.20;50.90
1011;DHT22;494;48.744;10.106;2023-04-24T03:26:36;11.10;51.20
1011;DHT22;494;48.744;10.106;2023-04-24T03:29:05;11.20;51.60
1011;DHT22;494;48.744;10.106;2023-04-24T03:31:34;11.20;51.70
1011;DHT22;494;48.744;10.106;2023-04-24T03:34:03;11.20;51.60
1011;DHT22;494;48.744;10.106;2023-04-24T03:36:33;11.20;51.60
1011;DHT22;494;48.744;10.106;2023-04-24T03:39:02;11.30;51.70
1011;DHT22;494;48.744;10.106;2023-04-24T03:41:31;11.40;51.60
1011;DHT22;494;48.744;10.106;2023-04-24T03:44:00;11.40;51.20
1011;DHT22;494;48.744;10.106;2023-04-24T03:46:29;11.40;51.30
1011;DHT22;494;48.744;10.106;2023-04-24T03:48:58;11.40;51.30
1011;DHT22;494;48.744;10.106;2023-04-24T03:51:29;11.40;51.30
1011;DHT22;494;48.744;10.106;2023-04-24T03:53:58;11.50;51.20
1011;DHT22;494;48.744;10.106;2023-04-24T03:56:27;11.50;51.20
1011;DHT22;494;48.744;10.106;2023-04-24T03:58:56;11.40;50.80
1011;DHT22;494;48.744;10.106;2023-04-24T04:01:25;11.20;50.90
1011;DHT22;494;48.744;10.106;2023-04-24T04:03:57;11.30;51.20
1011;DHT22;494;48.744;10.106;2023-04-24T04:06:29;11.20;51.20
1011;DHT22;494;48.744;10.106;2023-04-24T04:08:59;11.20;51.40
1011;DHT22;494;48.744;10.106;2023-04-24T04:11:27;11.30;51.70
1011;DHT22;494;48.744;10.106;2023-04-24T04:13:56;11.40;51.60
1011;DHT22;494;48.744;10.106;2023-04-24T04:16:25;11.40;51.60
1011;DHT22;494;48.744;10.106;2023-04-24T04:18:54;11.40;51.30
1011;DHT22;494;48.744;10.106;2023-04-24T04:21:24;11.40;51.20
1011;DHT22;494;48.744;10.106;2023-04-24T04:23:55;11.40;51.30
1011;DHT22;494;48.744;10.106;2023-04-24T04:26:23;11.50;51.40
1011;DHT22;494;48.744;10.106;2023-04-24T04:28:52;11.50;51.40
1011;DHT22;494;48.744;10.106;2023-04-24T04:31:21;11.60;51.40
1011;DHT22;494;48.744;10.106;2023-04-24T04:33:50;11.60;51.40
1011;DHT22;494;48.744;10.106;2023-04-24T04:36:19;11.60;51.90
1011;DHT22;494;48.744;10.106;2023-04-24T04:38:48;11.60;52.20
1011;DHT22;494;48.744;10.106;2023-04-24T04:41:18;11.60;52.30
1011;DHT22;494;48.744;10.106;2023-04-24T04:43:47;11.60;52.70
1011;DHT22;494;48.744;10.106;2023-04-24T04:46:18;11.60;52.90
1011;DHT22;494;48.744;10.106;2023-04-24T04:48:46;11.60;53.00
1011;DHT22;494;48.744;10.106;2023-04-24T04:51:15;11.70;53.10
1011;DHT22;494;48.744;10.106;2023-04-24T04:53:44;11.70;53.20
1011;DHT22;494;48.744;10.106;2023-04-24T04:56:12;11.80;52.90
1011;DHT22;494;48.744;10.106;2023-04-24T04:58:43;11.70;52.90
1011;DHT22;494;48.744;10.106;2023-04-24T05:01:12;11.80;53.20
1011;DHT22;494;48.744;10.106;2023-04-24T05:03:42;11.80;53.00
1011;DHT22;494;48.744;10.106;2023-04-24T05:06:12;11.90;52.90
1011;DHT22;494;48.744;10.106;2023-04-24T05:08:45;11.90;52.60
1011;DHT22;494;48.744;10.106;2023-04-24T05:11:16;11.90;52.50
1011;DHT22;494;48.744;10.106;2023-04-24T05:13:47;11.90;52.60
1011;DHT22;494;48.744;10.106;2023-04-24T05:16:17;11.90;52.40
1011;DHT22;494;48.744;10.106;2023-04-24T05:18:46;11.90;52.40
1011;DHT22;494;48.744;10.106;2023-04-24T05:21:15;11.90;52.00
1011;DHT22;494;48.744;10.106;2023-04-24T05:23:44;12.00;51.90
1011;DHT22;494;48.744;10.106;2023-04-24T05:26:13;12.00;51.60
1011;DHT22;494;48.744;10.106;2023-04-24T05:28:47;12.10;51.70
1011;DHT22;494;48.744;10.106;2023-04-24T05:31:19;12.20;51.60
1011;DHT22;494;48.744;10.106;2023-04-24T05:33:48;12.30;51.40
1011;DHT22;494;48.744;10.106;2023-04-24T05:36:17;12.40;51.20
1011;DHT22;494;48.744;10.106;2023-04-24T05:38:46;12.30;50.30
1011;DHT22;494;48.744;10.106;2023-04-24T05:41:15;12.40;50.70
1011;DHT22;494;48.744;10.106;2023-04-24T05:43:44;12.30;49.60
1011;DHT22;494;48.744;10.106;2023-04-24T05:46:14;12.30;50.40
1011;DHT22;494;48.744;10.106;2023-04-24T05:48:43;12.30;50.80
1011;DHT22;494;48.744;10.106;2023-04-24T05:51:13;11.80;51.70
1011;DHT22;494;48.744;10.106;2023-04-24T05:53:43;10.80;45.50
1011;DHT22;494;48.744;10.106;2023-04-24T05:56:13;10.20;48.90
1011;DHT22;494;48.744;10.106;2023-04-24T05:58:45;9.80;48.90
1011;DHT22;494;48.744;10.106;2023-04-24T06:01:17;9.40;51.70
1011;DHT22;494;48.744;10.106;2023-04-24T06:03:48;9.30;51.30
1011;DHT22;494;48.744;10.106;2023-04-24T06:06:18;9.20;53.40
1011;DHT22;494;48.744;10.106;2023-04-24T06:08:49;9.30;54.30
1011;DHT22;494;48.744;10.106;2023-04-24T06:11:18;9.30;55.20
1011;DHT22;494;48.744;10.106;2023-04-24T06:13:50;9.40;55.00
1011;DHT22;494;48.744;10.106;2023-04-24T06:16:36;9.50;54.90
1011;DHT22;494;48.744;10.106;2023-04-24T06:19:07;9.80;54.50
1011;DHT22;494;48.744;10.106;2023-04-24T06:21:42;9.80;53.00
1011;DHT22;494;48.744;10.106;2023-04-24T06:25:12;9.90;52.70
1011;DHT22;494;48.744;10.106;2023-04-24T06:27:50;10.00;50.90
1011;DHT22;494;48.744;10.106;2023-04-24T06:30:31;9.90;50.70
1011;DHT22;494;48.744;10.106;2023-04-24T06:33:03;10.00;51.50
1011;DHT22;494;48.744;10.106;2023-04-24T06:35:46;10.00;51.70
1011;DHT22;494;48.744;10.106;2023-04-24T06:38:15;10.30;52.60
1011;DHT22;494;48.744;10.106;2023-04-24T06:40:45;10.50;51.70
1011;DHT22;494;48.744;10.106;2023-04-24T06:43:15;10.70;51.10
1011;DHT22;494;48.744;10.106;2023-04-24T06:45:47;10.80;50.50
1011;DHT22;494;48.744;10.106;2023-04-24T06:48:18;11.00;50.30
1011;DHT22;494;48.744;10.106;2023-04-24T06:50:47;11.10;50.00
1011;DHT22;494;48.744;10.106;2023-04-24T06:53:16;11.10;49.20
1011;DHT22;494;48.744;10.106;2023-04-24T06:55:50;11.00;49.90
1011;DHT22;494;48.744;10.106;2023-04-24T06:58:24;10.90;50.80
1011;DHT22;494;48.744;10.106;2023-04-24T07:00:56;11.00;52.00
1011;DHT22;494;48.744;10.106;2023-04-24T07:03:27;11.20;51.70
1011;DHT22;494;48.744;10.106;2023-04-24T07:06:00;11.30;51.50
1011;DHT22;494;48.744;10.106;2023-04-24T07:08:35;11.40;52.00
1011;DHT22;494;48.744;10.106;2023-04-24T07:11:08;11.20;50.70
1011;DHT22;494;48.744;10.106;2023-04-24T07:13:38;11.00;50.10
1011;DHT22;494;48.744;10.106;2023-04-24T07:16:09;10.90;51.60
1011;DHT22;494;48.744;10.106;2023-04-24T07:18:41;10.80;53.10
1011;DHT22;494;48.744;10.106;2023-04-24T07:21:10;10.90;53.30
1011;DHT22;494;48.744;10.106;2023-04-24T07:23:39;11.10;53.00
1011;DHT22;494;48.744;10.106;2023-04-24T07:26:08;11.20;51.70
1011;DHT22;494;48.744;10.106;2023-04-24T07:28:37;11.40;52.20
1011;DHT22;494;48.744;10.106;2023-04-24T07:31:06;11.50;51.20
1011;DHT22;494;48.744;10.106;2023-04-24T07:33:35;11.70;50.10
1011;DHT22;494;48.744;10.106;2023-04-24T07:36:06;11.80;49.30
1011;DHT22;494;48.744;10.106;2023-04-24T07:38:35;11.90;49.20
1011;DHT22;494;48.744;10.106;2023-04-24T07:41:04;12.10;48.90
1011;DHT22;494;48.744;10.106;2023-04-24T07:43:33;12.20;45.20
1011;DHT22;494;48.744;10.106;2023-04-24T07:46:03;12.30;47.30
1011;DHT22;494;48.744;10.106;2023-04-24T07:48:35;12.30;47.00
1011;DHT22;494;48.744;10.106;2023-04-24T07:51:05;12.20;43.60
1011;DHT22;494;48.744;10.106;2023-04-24T07:53:37;11.80;44.20
1011;DHT22;494;48.744;10.106;2023-04-24T07:56:07;11.80;46.10
1011;DHT22;494;48.744;10.106;2023-04-24T07:58:36;12.00;48.70
1011;DHT22;494;48.744;10.106;2023-04-24T08:01:04;12.40;50.50
1011;DHT22;494;48.744;10.106;2023-04-24T08:03:33;12.80;47.60
1011;DHT22;494;48.744;10.106;2023-04-24T08:06:06;13.20;45.60
1011;DHT22;494;48.744;10.106;2023-04-24T08:08:35;13.30;43.50
1011;DHT22;494;48.744;10.106;2023-04-24T08:11:04;13.40;41.00
1011;DHT22;494;48.744;10.106;2023-04-24T08:13:33;13.50;38.10
1011;DHT22;494;48.744;10.106;2023-04-24T08:16:02;13.40;37.30
1011;DHT22;494;48.744;10.106;2023-04-24T08:18:31;13.20;35.90
1011;DHT22;494;48.744;10.106;2023-04-24T08:21:01;13.20;36.80
1011;DHT22;494;48.744;10.106;2023-04-24T08:23:32;12.90;39.00
1011;DHT22;494;48.744;10.106;2023-04-24T08:26:00;13.20;41.50
1011;DHT22;494;48.744;10.106;2023-04-24T08:28:30;13.70;36.60
1011;DHT22;494;48.744;10.106;2023-04-24T08:30:59;13.90;36.70
1011;DHT22;494;48.744;10.106;2023-04-24T08:33:28;13.80;31.00
1011;DHT22;494;48.744;10.106;2023-04-24T08:36:02;13.70;33.10
1011;DHT22;494;48.744;10.106;2023-04-24T08:38:33;13.10;35.90
1011;DHT22;494;48.744;10.106;2023-04-24T08:41:02;12.80;37.60
1011;DHT22;494;48.744;10.106;2023-04-24T08:43:33;12.60;40.40
1011;DHT22;494;48.744;10.106;2023-04-24T08:46:05;12.40;43.00
1011;DHT22;494;48.744;10.106;2023-04-24T08:48:38;11.90;43.70
1011;DHT22;494;48.744;10.106;2023-04-24T08:51:07;11.10;46.20
1011;DHT22;494;48.744;10.106;2023-04-24T08:53:40;10.40;48.80
1011;DHT22;494;48.744;10.106;2023-04-24T08:56:09;10.30;49.80
1011;DHT22;494;48.744;10.106;2023-04-24T08:58:41;10.30;50.70
1011;DHT22;494;48.744;10.106;2023-04-24T09:01:12;10.40;50.40
1011;DHT22;494;48.744;10.106;2023-04-24T09:03:43;10.70;51.30
1011;DHT22;494;48.744;10.106;2023-04-24T09:06:12;11.10;52.50
1011;DHT22;494;48.744;10.106;2023-04-24T09:08:44;11.50;51.90
1011;DHT22;494;48.744;10.106;2023-04-24T09:11:14;11.90;51.80
1011;DHT22;494;48.744;10.106;2023-04-24T09:13:46;12.30;51.80
1011;DHT22;494;48.744;10.106;2023-04-24T09:16:19;12.50;51.70
1011;DHT22;494;48.744;10.106;2023-04-24T09:18:50;12.90;50.10
1011;DHT22;494;48.744;10.106;2023-04-24T09:21:21;13.20;49.30
1011;DHT22;494;48.744;10.106;2023-04-24T09:24:15;13.40;45.30
1011;DHT22;494;48.744;10.106;2023-04-24T09:26:46;13.40;40.40
1011;DHT22;494;48.744;10.106;2023-04-24T09:29:16;13.40;43.30
1011;DHT22;494;48.744;10.106;2023-04-24T09:31:46;13.20;39.60
1011;DHT22;494;48.744;10.106;2023-04-24T09:34:21;13.10;40.10
1011;DHT22;494;48.744;10.106;2023-04-24T09:36:51;12.80;39.30
1011;DHT22;494;48.744;10.106;2023-04-24T09:39:23;13.10;43.10
1011;DHT22;494;48.744;10.106;2023-04-24T09:41:54;13.00;38.20
1011;DHT22;494;48.744;10.106;2023-04-24T09:44:26;12.60;36.00
1011;DHT22;494;48.744;10.106;2023-04-24T09:46:57;12.50;40.50
1011;DHT22;494;48.744;10.106;2023-04-24T09:49:28;12.60;37.20
1011;DHT22;494;48.744;10.106;2023-04-24T09:52:04;12.90;37.70
1011;DHT22;494;48.744;10.106;2023-04-24T09:54:35;13.20;34.20
1011;DHT22;494;48.744;10.106;2023-04-24T09:57:06;13.50;31.50
1011;DHT22;494;48.744;10.106;2023-04-24T09:59:42;13.70;29.90
1011;DHT22;494;48.744;10.106;2023-04-24T10:02:17;13.80;29.60
1011;DHT22;494;48.744;10.106;2023-04-24T10:04:55;14.10;32.60
1011;DHT22;494;48.744;10.106;2023-04-24T10:07:27;14.40;26.70
1011;DHT22;494;48.744;10.106;2023-04-24T10:09:57;14.60;27.60
1011;DHT22;494;48.744;10.106;2023-04-24T10:12:27;14.90;24.60
1011;DHT22;494;48.744;10.106;2023-04-24T10:14:58;14.90;22.30
1011;DHT22;494;48.744;10.106;2023-04-24T10:17:29;15.00;24.50
1011;DHT22;494;48.744;10.106;2023-04-24T10:20:00;15.20;21.30
1011;DHT22;494;48.744;10.106;2023-04-24T10:22:30;14.90;21.40
1011;DHT22;494;48.744;10.106;2023-04-24T10:25:07;14.50;23.90
1011;DHT22;494;48.744;10.106;2023-04-24T10:27:38;14.10;24.30
1011;DHT22;494;48.744;10.106;2023-04-24T10:30:13;13.90;23.60
1011;DHT22;494;48.744;10.106;2023-04-24T10:32:45;14.10;22.50
1011;DHT22;494;48.744;10.106;2023-04-24T10:35:18;14.50;22.10
1011;DHT22;494;48.744;10.106;2023-04-24T10:37:56;14.80;22.40
1011;DHT22;494;48.744;10.106;2023-04-24T10:40:33;15.00;21.40
1011;DHT22;494;48.744;10.106;2023-04-24T10:43:08;15.40;19.40
1011;DHT22;494;48.744;10.106;2023-04-24T10:45:40;15.50;18.40
1011;DHT22;494;48.744;10.106;2023-04-24T10:48:10;15.50;16.80
1011;DHT22;494;48.744;10.106;2023-04-24T10:50:46;15.70;15.10
1011;DHT22;494;48.744;10.106;2023-04-24T10:53:17;15.50;14.20
1011;DHT22;494;48.744;10.106;2023-04-24T10:55:49;15.60;14.70
1011;DHT22;494;48.744;10.106;2023-04-24T10:58:22;15.40;14.30
1011;DHT22;494;48.744;10.106;2023-04-24T11:00:59;15.10;14.60
1011;DHT22;494;48.744;10.106;2023-04-24T11:03:31;15.00;14.90
1011;DHT22;494;48.744;10.106;2023-04-24T11:06:03;15.00;14.30
1011;DHT22;494;48.744;10.106;2023-04-24T11:08:38;15.10;14.20
1011;DHT22;494;48.744;10.106;2023-04-24T11:11:13;15.40;13.30
1011;DHT22;494;48.744;10.106;2023-04-24T11:14:05;15.80;11.50
1011;DHT22;494;48.744;10.106;2023-04-24T11:16:38;16.20;11.80
1011;DHT22;494;48.744;10.106;2023-04-24T11:19:21;16.60;13.30
1011;DHT22;494;48.744;10.106;2023-04-24T11:21:57;16.70;11.10
1011;DHT22;494;48.744;10.106;2023-04-24T11:24:37;15.90;11.90
1011;DHT22;494;48.744;10.106;2023-04-24T11:27:13;15.60;13.10
1011;DHT22;494;48.744;10.106;2023-04-24T11:29:46;15.20;14.60
1011;DHT22;494;48.744;10.106;2023-04-24T11:32:25;15.10;16.10
1011;DHT22;494;48.744;10.106;2023-04-24T11:34:58;14.90;16.00
1011;DHT22;494;48.744;10.106;2023-04-24T11:37:33;15.30;15.90
1011;DHT22;494;48.744;10.106;2023-04-24T11:40:06;15.70;13.80
1011;DHT22;494;48.744;10.106;2023-04-24T11:42:43;16.10;11.10
1011;DHT22;494;48.744;10.106;2023-04-24T11:45:14;16.40;9.90
1011;DHT22;494;48.744;10.106;2023-04-24T11:47:45;16.00;9.90
1011;DHT22;494;48.744;10.106;2023-04-24T11:50:15;15.30;11.00
1011;DHT22;494;48.744;10.106;2023-04-24T11:52:46;15.00;12.10
1011;DHT22;494;48.744;10.106;2023-04-24T11:55:27;15.20;13.30
1011;DHT22;494;48.744;10.106;2023-04-24T11:57:58;15.50;13.00
1011;DHT22;494;48.744;10.106;2023-04-24T12:00:30;15.70;12.70
1011;DHT22;494;48.744;10.106;2023-04-24T12:03:06;15.70;11.90
1011;DHT22;494;48.744;10.106;2023-04-24T12:05:36;15.70;13.50
1011;DHT22;494;48.744;10.106;2023-04-24T12:08:06;15.80;12.80
1011;DHT22;494;48.744;10.106;2023-04-24T12:10:35;15.90;12.20
1011;DHT22;494;48.744;10.106;2023-04-24T12:13:09;16.00;11.20
1011;DHT22;494;48.744;10.106;2023-04-24T12:15:40;16.10;12.30
1011;DHT22;494;48.744;10.106;2023-04-24T12:18:11;16.30;11.70
1011;DHT22;494;48.744;10.106;2023-04-24T12:20:40;16.30;11.90
1011;DHT22;494;48.744;10.106;2023-04-24T12:23:09;16.10;10.60
1011;DHT22;494;48.744;10.106;2023-04-24T12:25:38;15.80;10.20
1011;DHT22;494;48.744;10.106;2023-04-24T12:28:13;15.50;11.80
1011;DHT22;494;48.744;10.106;2023-04-24T12:30:43;15.30;12.70
1011;DHT22;494;48.744;10.106;2023-04-24T12:33:13;15.10;11.50
1011;DHT22;494;48.744;10.106;2023-04-24T12:35:48;14.90;12.30
1011;DHT22;494;48.744;10.106;2023-04-24T12:38:22;14.90;12.30
1011;DHT22;494;48.744;10.106;2023-04-24T12:41:02;15.10;12.20
1011;DHT22;494;48.744;10.106;2023-04-24T12:43:34;15.20;11.80
1011;DHT22;494;48.744;10.106;2023-04-24T12:46:04;15.00;12.30
1011;DHT22;494;48.744;10.106;2023-04-24T12:48:33;14.50;13.50
1011;DHT22;494;48.744;10.106;2023-04-24T12:51:02;14.40;14.30
1011;DHT22;494;48.744;10.106;2023-04-24T12:53:31;14.70;14.60
1011;DHT22;494;48.744;10.106;2023-04-24T12:55:59;14.80;13.30
1011;DHT22;494;48.744;10.106;2023-04-24T12:58:28;15.20;13.40
1011;DHT22;494;48.744;10.106;2023-04-24T13:00:58;16.00;11.30
1011;DHT22;494;48.744;10.106;2023-04-24T13:03:28;16.40;11.30
1011;DHT22;494;48.744;10.106;2023-04-24T13:05:57;16.20;10.60
1011;DHT22;494;48.744;10.106;2023-04-24T13:08:25;15.90;12.20
1011;DHT22;494;48.744;10.106;2023-04-24T13:10:54;15.70;12.50
1011;DHT22;494;48.744;10.106;2023-04-24T13:13:24;15.50;13.50
1011;DHT22;494;48.744;10.106;2023-04-24T13:16:08;15.20;13.50
1011;DHT22;494;48.744;10.106;2023-04-24T13:18:38;14.70;14.10
1011;DHT22;494;48.744;10.106;2023-04-24T13:21:07;14.20;15.10
1011;DHT22;494;48.744;10.106;2023-04-24T13:23:36;13.70;16.50
1011;DHT22;494;48.744;10.106;2023-04-24T13:26:05;13.60;16.90
1011;DHT22;494;48.744;10.106;2023-04-24T13:28:34;13.80;16.40
1011;DHT22;494;48.744;10.106;2023-04-24T13:31:04;14.10;16.30
1011;DHT22;494;48.744;10.106;2023-04-24T13:33:38;14.60;14.50
1011;DHT22;494;48.744;10.106;2023-04-24T13:36:08;15.00;13.60
1011;DHT22;494;48.744;10.106;2023-04-24T13:38:37;15.30;12.60
1011;DHT22;494;48.744;10.106;2023-04-24T13:41:05;15.20;12.50
1011;DHT22;494;48.744;10.106;2023-04-24T13:43:35;14.90;12.30
1011;DHT22;494;48.744;10.106;2023-04-24T13:46:04;14.70;13.50
1011;DHT22;494;48.744;10.106;2023-04-24T13:48:34;14.60;13.20
1011;DHT22;494;48.744;10.106;2023-04-24T13:51:04;14.50;14.10
1011;DHT22;494;48.744;10.106;2023-04-24T13:53:33;14.20;14.20
1011;DHT22;494;48.744;10.106;2023-04-24T13:56:05;14.00;14.70
1011;DHT22;494;48.744;10.106;2023-04-24T13:58:35;14.00;15.30
1011;DHT22;494;48.744;10.106;2023-04-24T14:01:07;14.20;14.90
1011;DHT22;494;48.744;10.106;2023-04-24T14:03:37;14.30;14.90
1011;DHT22;494;48.744;10.106;2023-04-24T14:06:08;14.50;14.80
1011;DHT22;494;48.744;10.106;2023-04-24T14:08:37;14.60;14.00
1011;DHT22;494;48.744;10.106;2023-04-24T14:11:06;14.70;13.80
1011;DHT22;494;48.744;10.106;2023-04-24T14:13:35;14.80;14.10
1011;DHT22;494;48.744;10.106;2023-04-24T14:16:06;15.00;13.40
1011;DHT22;494;48.744;10.106;2023-04-24T14:18:35;15.00;14.20
1011;DHT22;494;48.744;10.106;2023-04-24T14:21:05;15.10;14.10
1011;DHT22;494;48.744;10.106;2023-04-24T14:23:35;14.80;13.40
1011;DHT22;494;48.744;10.106;2023-04-24T14:26:04;14.60;14.00
1011;DHT22;494;48.744;10.106;2023-04-24T14:28:35;14.60;14.70
1011;DHT22;494;48.744;10.106;2023-04-24T14:31:06;14.60;14.60
1011;DHT22;494;48.744;10.106;2023-04-24T14:33:37;14.30;14.30
1011;DHT22;494;48.744;10.106;2023-04-24T14:36:06;13.90;15.10
1011;DHT22;494;48.744;10.106;2023-04-24T14:38:37;13.60;15.90
1011;DHT22;494;48.744;10.106;2023-04-24T14:41:07;13.30;16.60
1011;DHT22;494;48.744;10.106;2023-04-24T14:43:40;13.40;16.70
1011;DHT22;494;48.744;10.106;2023-04-24T14:46:10;13.50;16.60
1011;DHT22;494;48.744;10.106;2023-04-24T14:48:39;13.80;16.30
1011;DHT22;494;48.744;10.106;2023-04-24T14:51:08;14.50;15.30
1011;DHT22;494;48.744;10.106;2023-04-24T14:53:44;15.70;12.90
1011;DHT22;494;48.744;10.106;2023-04-24T14:56:22;16.20;12.30
1011;DHT22;494;48.744;10.106;2023-04-24T14:58:52;15.90;11.90
1011;DHT22;494;48.744;10.106;2023-04-24T15:01:22;15.00;13.30
1011;DHT22;494;48.744;10.106;2023-04-24T15:03:52;14.70;14.60
1011;DHT22;494;48.744;10.106;2023-04-24T15:06:21;14.10;14.80
1011;DHT22;494;48.744;10.106;2023-04-24T15:08:51;13.50;16.70
1011;DHT22;494;48.744;10.106;2023-04-24T15:11:24;13.10;18.10
1011;DHT22;494;48.744;10.106;2023-04-24T15:13:54;13.00;19.40
1011;DHT22;494;48.744;10.106;2023-04-24T15:16:24;12.60;20.90
1011;DHT22;494;48.744;10.106;2023-04-24T15:18:57;12.20;24.70
1011;DHT22;494;48.744;10.106;2023-04-24T15:21:26;12.10;27.50
1011;DHT22;494;48.744;10.106;2023-04-24T15:23:57;12.00;29.90
1011;DHT22;494;48.744;10.106;2023-04-24T15:26:29;11.80;30.20
1011;DHT22;494;48.744;10.106;2023-04-24T15:29:01;11.40;33.20
1011;DHT22;494;48.744;10.106;2023-04-24T15:31:31;11.40;34.80
1011;DHT22;494;48.744;10.106;2023-04-24T15:34:00;11.60;34.40
1011;DHT22;494;48.744;10.106;2023-04-24T15:36:29;11.70;33.60
1011;DHT22;494;48.744;10.106;2023-04-24T15:39:17;11.80;31.50
1011;DHT22;494;48.744;10.106;2023-04-24T15:41:47;11.80;31.20
1011;DHT22;494;48.744;10.106;2023-04-24T15:44:19;12.00;31.80
1011;DHT22;494;48.744;10.106;2023-04-24T15:46:49;12.20;30.60
1011;DHT22;494;48.744;10.106;2023-04-24T15:49:20;12.40;30.00
1011;DHT22;494;48.744;10.106;2023-04-24T15:51:49;12.40;29.60
1011;DHT22;494;48.744;10.106;2023-04-24T15:54:20;12.40;27.30
1011;DHT22;494;48.744;10.106;2023-04-24T15:56:50;12.00;28.50
1011;DHT22;494;48.744;10.106;2023-04-24T15:59:22;12.20;28.40
1011;DHT22;494;48.744;10.106;2023-04-24T16:01:51;12.20;28.40
1011;DHT22;494;48.744;10.106;2023-04-24T16:04:25;12.30;29.40
1011;DHT22;494;48.744;10.106;2023-04-24T16:06:54;12.50;27.30
1011;DHT22;494;48.744;10.106;2023-04-24T16:09:26;12.60;25.90
1011;DHT22;494;48.744;10.106;2023-04-24T16:12:01;12.80;25.70
1011;DHT22;494;48.744;10.106;2023-04-24T16:14:31;12.80;23.00
1011;DHT22;494;48.744;10.106;2023-04-24T16:17:01;13.30;21.50
1011;DHT22;494;48.744;10.106;2023-04-24T16:19:31;13.90;21.50
1011;DHT22;494;48.744;10.106;2023-04-24T16:22:05;14.60;19.00
1011;DHT22;494;48.744;10.106;2023-04-24T16:25:01;14.80;16.90
1011;DHT22;494;48.744;10.106;2023-04-24T16:27:55;14.70;16.20